sensor_id;sensor_type;location;lat;lon;timestamp;P1;durP1;ratioP1;P2;durP2;ratioP2
26838;SDS011;40088;51.214;6.786;2023-02-28T00:07:38;5.35;;;3.47;;
26838;SDS011;40088;51.214;6.786;2023-02-28T00:17:40;4.88;;;3.72;;
26838;SDS011;40088;51.214;6.786;2023-02-28T00:27:41;4.95;;;3.00;;
26838;SDS011;40088;51.214;6.786;2023-02-28T00:47:45;4.97;;;3.30;;
26838;SDS011;40088;51.214;6.786;2023-02-28T00:57:50;4.15;;;2.97;;
26838;SDS011;40088;51.214;6.786;2023-02-28T01:07:51;4.45;;;3.05;;
26838;SDS011;40088;51.214;6.786;2023-02-28T01:17:53;4.32;;;2.92;;
26838;SDS011;40088;51.214;6.786;2023-02-28T01:27:56;4.45;;;3.05;;
26838;SDS011;40088;51.214;6.786;2023-02-28T01:37:57;3.55;;;2.85;;
26838;SDS011;40088;51.214;6.786;2023-02-28T01:48:00;3.53;;;2.80;;
26838;SDS011;40088;51.214;6.786;2023-02-28T01:58:04;4.25;;;3.10;;
26838;SDS011;40088;51.214;6.786;2023-02-28T02:08:11;3.40;;;2.60;;
26838;SDS011;40088;51.214;6.786;2023-02-28T02:18:17;4.40;;;2.95;;
26838;SDS011;40088;51.214;6.786;2023-02-28T02:49:39;6.00;;;3.00;;
26838;SDS011;40088;51.214;6.786;2023-02-28T02:59:49;6.18;;;2.80;;
26838;SDS011;40088;51.214;6.786;2023-02-28T03:20:17;4.18;;;2.72;;
26838;SDS011;40088;51.214;6.786;2023-02-28T03:30:24;3.60;;;2.75;;
26838;SDS011;40088;51.214;6.786;2023-02-28T03:40:51;5.18;;;3.33;;
26838;SDS011;40088;51.214;6.786;2023-02-28T03:51:01;4.10;;;2.88;;
26838;SDS011;40088;51.214;6.786;2023-02-28T04:01:21;3.97;;;3.03;;
26838;SDS011;40088;51.214;6.786;2023-02-28T04:11:39;3.53;;;2.50;;
26838;SDS011;40088;51.214;6.786;2023-02-28T04:21:46;3.47;;;2.78;;
26838;SDS011;40088;51.214;6.786;2023-02-28T04:31:52;4.18;;;2.55;;
26838;SDS011;40088;51.214;6.786;2023-02-28T04:41:59;4.47;;;2.40;;
26838;SDS011;40088;51.214;6.786;2023-02-28T04:52:01;2.83;;;2.53;;
26838;SDS011;40088;51.214;6.786;2023-02-28T05:02:04;2.50;;;2.10;;
26838;SDS011;40088;51.214;6.786;2023-02-28T05:12:06;3.40;;;2.58;;
26838;SDS011;40088;51.214;6.786;2023-02-28T05:32:20;2.85;;;2.10;;
26838;SDS011;40088;51.214;6.786;2023-02-28T05:42:21;2.83;;;2.10;;
26838;SDS011;40088;51.214;6.786;2023-02-28T05:52:27;2.30;;;1.90;;
26838;SDS011;40088;51.214;6.786;2023-02-28T06:02:33;4.60;;;2.40;;
26838;SDS011;40088;51.214;6.786;2023-02-28T06:22:37;2.55;;;1.85;;
26838;SDS011;40088;51.214;6.786;2023-02-28T06:32:39;2.85;;;2.05;;
26838;SDS011;40088;51.214;6.786;2023-02-28T06:42:41;2.53;;;2.20;;
26838;SDS011;40088;51.214;6.786;2023-02-28T07:02:53;3.20;;;1.92;;
26838;SDS011;40088;51.214;6.786;2023-02-28T07:12:56;3.00;;;2.15;;
26838;SDS011;40088;51.214;6.786;2023-02-28T07:43:20;4.43;;;1.95;;
26838;SDS011;40088;51.214;6.786;2023-02-28T07:53:22;10.40;;;2.30;;
26838;SDS011;40088;51.214;6.786;2023-02-28T08:13:37;17.95;;;3.17;;
26838;SDS011;40088;51.214;6.786;2023-02-28T08:23:40;19.73;;;3.13;;
26838;SDS011;40088;51.214;6.786;2023-02-28T08:33:43;6.47;;;2.60;;
26838;SDS011;40088;51.214;6.786;2023-02-28T08:53:57;4.93;;;2.28;;
26838;SDS011;40088;51.214;6.786;2023-02-28T09:04:01;5.28;;;2.05;;
26838;SDS011;40088;51.214;6.786;2023-02-28T09:14:08;6.32;;;2.00;;
26838;SDS011;40088;51.214;6.786;2023-02-28T09:24:14;3.83;;;2.10;;
26838;SDS011;40088;51.214;6.786;2023-02-28T09:44:44;4.70;;;1.70;;
26838;SDS011;40088;51.214;6.786;2023-02-28T09:54:52;3.53;;;1.83;;
26838;SDS011;40088;51.214;6.786;2023-02-28T10:05:06;3.42;;;1.80;;
26838;SDS011;40088;51.214;6.786;2023-02-28T10:15:15;3.28;;;1.80;;
26838;SDS011;40088;51.214;6.786;2023-02-28T10:36:30;1.55;;;1.40;;
26838;SDS011;40088;51.214;6.786;2023-02-28T10:46:32;2.55;;;1.48;;
26838;SDS011;40088;51.214;6.786;2023-02-28T10:56:35;2.37;;;1.80;;
26838;SDS011;40088;51.214;6.786;2023-02-28T11:16:56;3.55;;;1.33;;
26838;SDS011;40088;51.214;6.786;2023-02-28T11:27:48;1.98;;;1.35;;
26838;SDS011;40088;51.214;6.786;2023-02-28T11:37:52;3.33;;;1.60;;
26838;SDS011;40088;51.214;6.786;2023-02-28T11:58:50;1.67;;;1.33;;
26838;SDS011;40088;51.214;6.786;2023-02-28T12:09:19;2.28;;;1.50;;
26838;SDS011;40088;51.214;6.786;2023-02-28T12:19:47;1.67;;;1.30;;
26838;SDS011;40088;51.214;6.786;2023-02-28T12:30:25;2.38;;;1.35;;
26838;SDS011;40088;51.214;6.786;2023-02-28T12:51:07;2.10;;;1.50;;
26838;SDS011;40088;51.214;6.786;2023-02-28T13:22:44;1.75;;;1.52;;
26838;SDS011;40088;51.214;6.786;2023-02-28T14:24:56;1.65;;;1.48;;
26838;SDS011;40088;51.214;6.786;2023-02-28T14:45:24;2.03;;;1.65;;
26838;SDS011;40088;51.214;6.786;2023-02-28T14:55:35;1.20;;;1.10;;
26838;SDS011;40088;51.214;6.786;2023-02-28T15:05:58;3.03;;;1.65;;
26838;SDS011;40088;51.214;6.786;2023-02-28T15:16:39;2.42;;;1.60;;
26838;SDS011;40088;51.214;6.786;2023-02-28T15:26:46;2.20;;;1.60;;
26838;SDS011;40088;51.214;6.786;2023-02-28T15:36:51;4.32;;;2.13;;
26838;SDS011;40088;51.214;6.786;2023-02-28T15:47:05;2.53;;;1.88;;
26838;SDS011;40088;51.214;6.786;2023-02-28T16:07:36;2.15;;;1.80;;
26838;SDS011;40088;51.214;6.786;2023-02-28T16:17:48;2.97;;;1.90;;
26838;SDS011;40088;51.214;6.786;2023-02-28T16:27:59;2.33;;;1.75;;
26838;SDS011;40088;51.214;6.786;2023-02-28T16:38:01;1.58;;;1.48;;
26838;SDS011;40088;51.214;6.786;2023-02-28T16:48:03;2.40;;;1.83;;
26838;SDS011;40088;51.214;6.786;2023-02-28T16:58:15;2.63;;;1.73;;
26838;SDS011;40088;51.214;6.786;2023-02-28T17:08:20;2.90;;;1.60;;
26838;SDS011;40088;51.214;6.786;2023-02-28T17:28:37;2.88;;;1.80;;
26838;SDS011;40088;51.214;6.786;2023-02-28T17:38:42;2.72;;;1.90;;
26838;SDS011;40088;51.214;6.786;2023-02-28T17:48:49;2.83;;;1.92;;
26838;SDS011;40088;51.214;6.786;2023-02-28T17:58:56;2.67;;;2.05;;
26838;SDS011;40088;51.214;6.786;2023-02-28T18:19:58;2.97;;;1.90;;
26838;SDS011;40088;51.214;6.786;2023-02-28T18:30:08;3.10;;;2.10;;
26838;SDS011;40088;51.214;6.786;2023-02-28T18:40:18;2.60;;;2.20;;
26838;SDS011;40088;51.214;6.786;2023-02-28T19:00:31;3.97;;;2.40;;
26838;SDS011;40088;51.214;6.786;2023-02-28T19:10:41;3.70;;;2.50;;
26838;SDS011;40088;51.214;6.786;2023-02-28T19:20:55;3.45;;;2.30;;
26838;SDS011;40088;51.214;6.786;2023-02-28T19:30:58;4.40;;;2.30;;
26838;SDS011;40088;51.214;6.786;2023-02-28T19:41:02;3.00;;;2.20;;
26838;SDS011;40088;51.214;6.786;2023-02-28T19:51:14;4.03;;;2.38;;
26838;SDS011;40088;51.214;6.786;2023-02-28T20:01:18;3.30;;;2.45;;
26838;SDS011;40088;51.214;6.786;2023-02-28T20:11:27;3.20;;;2.35;;
26838;SDS011;40088;51.214;6.786;2023-02-28T20:21:36;3.05;;;2.42;;
26838;SDS011;40088;51.214;6.786;2023-02-28T20:31:42;3.00;;;2.70;;
26838;SDS011;40088;51.214;6.786;2023-02-28T20:41:45;3.60;;;2.95;;
26838;SDS011;40088;51.214;6.786;2023-02-28T21:02:02;5.50;;;3.92;;
26838;SDS011;40088;51.214;6.786;2023-02-28T21:12:07;5.47;;;3.75;;
26838;SDS011;40088;51.214;6.786;2023-02-28T21:22:12;4.65;;;3.28;;
26838;SDS011;40088;51.214;6.786;2023-02-28T21:52:51;5.32;;;3.35;;
26838;SDS011;40088;51.214;6.786;2023-02-28T22:13:01;5.97;;;4.50;;
26838;SDS011;40088;51.214;6.786;2023-02-28T22:23:05;6.55;;;4.63;;
26838;SDS011;40088;51.214;6.786;2023-02-28T22:33:18;5.78;;;3.78;;
26838;SDS011;40088;51.214;6.786;2023-02-28T23:24:04;4.95;;;3.67;;
26838;SDS011;40088;51.214;6.786;2023-02-28T23:34:10;4.20;;;3.10;;
